Time;durP1;ratioP1;P1;durP2;ratioP2;P2;SDS_P1;SDS_P2;PMS_P1;PMS_P2;Temp;Humidity;BMP_temperature;BMP_pressure;BME280_temperature;BME280_humidity;BME280_pressure;Samples;Min_cycle;Max_cycle;Signal;HPM_P1;HPM_P2
2023/11/02 00:00:43;;;;;;;;;;;;;;;13.14;87.36;97810.56;5052539;28;19920;-61
2023/11/02 00:03:08;;;;;;;;;;;;;;;13.19;87.06;97815.81;5052475;28;20023;-58
2023/11/02 00:05:40;;;;;;;;;;;;;;;13.23;86.89;97811.47;5052106;28;20027;-58
2023/11/02 00:08:06;;;;;;;;;;;;;;;13.28;86.87;97807.97;5051082;28;19955;-59
2023/11/02 00:10:32;;;;;;;;;;;;;;;13.25;86.24;97808.53;5052148;28;20340;-58
2023/11/02 00:12:58;;;;;;;;;;;;;;;13.22;86.71;97811.78;5051102;28;19970;-61
2023/11/02 00:15:23;;;;;;;;;;;;;;;13.22;86.57;97812.56;5034353;28;19921;-60
2023/11/02 00:17:49;;;;;;;;;;;;;;;13.21;86.53;97811.00;5051797;28;19931;-60
2023/11/02 00:20:29;;;;;;;;;;;;;;;13.21;86.92;97808.31;5052533;28;19960;-60
2023/11/02 00:22:54;;;;;;;;;;;;;;;13.17;86.96;97807.31;5052653;28;19968;-60
2023/11/02 00:25:29;;;;;;;;;;;;;;;13.18;87.13;97801.72;5052053;28;20006;-60
2023/11/02 00:27:55;;;;;;;;;;;;;;;13.23;87.13;97792.84;5050935;28;19947;-60
2023/11/02 00:30:20;;;;;;;;;;;;;;;13.19;87.09;97797.19;5052310;28;19920;-59
2023/11/02 00:32:46;;;;;;;;;;;;;;;13.09;87.45;97786.72;5051694;28;19925;-60
2023/11/02 00:35:11;;;;;;;;;;;;;;;13.08;87.94;97791.22;5050489;28;20027;-58
2023/11/02 00:37:38;;;;;;;;;;;;;;;13.11;87.54;97793.31;5050374;28;20012;-60
2023/11/02 00:40:05;;;;;;;;;;;;;;;13.15;87.89;97791.66;5050708;28;20317;-61
2023/11/02 00:42:30;;;;;;;;;;;;;;;13.17;87.50;97780.72;5051936;28;19928;-60
2023/11/02 00:44:56;;;;;;;;;;;;;;;13.19;87.41;97779.34;5050673;28;20070;-59
2023/11/02 00:47:21;;;;;;;;;;;;;;;13.22;87.20;97783.28;5050374;28;19954;-60
2023/11/02 00:49:47;;;;;;;;;;;;;;;13.23;87.97;97779.53;5051331;28;19936;-61
2023/11/02 00:52:14;;;;;;;;;;;;;;;13.24;87.50;97775.81;5051742;28;20298;-59
2023/11/02 00:54:45;;;;;;;;;;;;;;;13.27;87.66;97774.47;5050399;28;19968;-60
2023/11/02 00:57:11;;;;;;;;;;;;;;;13.22;87.80;97774.53;5051707;28;19924;-60
2023/11/02 00:59:38;;;;;;;;;;;;;;;13.17;88.30;97778.06;5050439;28;20291;-61
2023/11/02 01:02:05;;;;;;;;;;;;;;;13.15;88.98;97777.56;5050163;28;19925;-60
2023/11/02 01:04:43;;;;;;;;;;;;;;;13.18;89.14;97783.09;5051569;28;19927;-61
2023/11/02 01:07:12;;;;;;;;;;;;;;;12.99;90.19;97779.69;5051713;28;19928;-61
2023/11/02 01:09:47;;;;;;;;;;;;;;;12.90;91.72;97782.22;5050265;28;19924;-60
2023/11/02 01:12:15;;;;;;;;;;;;;;;12.92;94.75;97773.97;5033951;28;19951;-59
2023/11/02 01:14:41;;;;;;;;;;;;;;;12.90;96.67;97774.25;5017162;28;20078;-62
2023/11/02 01:17:06;;;;;;;;;;;;;;;12.84;94.96;97774.63;5050153;28;20027;-59
2023/11/02 01:19:41;;;;;;;;;;;;;;;12.64;93.79;97778.41;5051477;28;19921;-59
2023/11/02 01:22:27;;;;;;;;;;;;;;;12.26;92.94;97781.91;5051698;28;19921;-61
2023/11/02 01:24:52;;;;;;;;;;;;;;;12.05;93.24;97788.53;5029763;28;19921;-60
2023/11/02 01:27:20;;;;;;;;;;;;;;;11.97;93.65;97783.84;5033484;28;19932;-59
2023/11/02 01:29:45;;;;;;;;;;;;;;;11.86;93.08;97779.78;5050343;28;19962;-60
2023/11/02 01:32:10;;;;;;;;;;;;;;;11.81;92.55;97781.38;5033499;28;19979;-59
2023/11/02 01:34:36;;;;;;;;;;;;;;;11.75;92.76;97787.03;5050058;28;19920;-59
2023/11/02 01:37:02;;;;;;;;;;;;;;;11.67;93.29;97787.66;5050003;28;19925;-59
2023/11/02 01:39:30;;;;;;;;;;;;;;;11.64;93.26;97789.00;5050018;28;20369;-60
2023/11/02 01:42:16;;;;;;;;;;;;;;;11.68;93.33;97791.91;5049895;28;19978;-59
2023/11/02 01:44:46;;;;;;;;;;;;;;;11.56;93.73;97793.09;5050800;28;20019;-59
2023/11/02 01:47:20;;;;;;;;;;;;;;;11.53;95.03;97796.31;5051337;28;19971;-59
2023/11/02 01:49:48;;;;;;;;;;;;;;;11.51;94.83;97797.66;5051513;28;19927;-59
2023/11/02 01:52:36;;;;;;;;;;;;;;;11.46;94.82;97790.53;5051594;28;19936;-60
2023/11/02 01:55:17;;;;;;;;;;;;;;;11.39;95.01;97792.75;5033449;28;19967;-59
2023/11/02 01:57:42;;;;;;;;;;;;;;;11.34;95.33;97785.59;5049806;28;19974;-58
2023/11/02 02:00:09;;;;;;;;;;;;;;;11.32;96.08;97789.59;5051168;28;19925;-61
2023/11/02 02:02:39;;;;;;;;;;;;;;;11.35;96.48;97795.16;5034339;28;19924;-61
2023/11/02 02:05:14;;;;;;;;;;;;;;;11.27;95.43;97795.00;5054008;28;19921;-59
2023/11/02 02:07:39;;;;;;;;;;;;;;;11.23;95.57;97801.91;5055081;28;19925;-59
2023/11/02 02:10:11;;;;;;;;;;;;;;;11.21;95.40;97799.53;5054793;28;20375;-60
2023/11/02 02:12:57;;;;;;;;;;;;;;;11.11;94.35;97804.94;5055161;28;20019;-60
2023/11/02 02:15:26;;;;;;;;;;;;;;;10.99;94.54;97804.50;5043632;28;19920;-59
2023/11/02 02:17:57;;;;;;;;;;;;;;;10.88;94.97;97801.16;5055243;28;20015;-60
2023/11/02 02:20:44;;;;;;;;;;;;;;;10.83;94.63;97795.91;5053991;28;19964;-61
2023/11/02 02:23:16;;;;;;;;;;;;;;;10.76;94.91;97800.72;5036926;28;19964;-59
2023/11/02 02:25:49;;;;;;;;;;;;;;;10.64;95.43;97798.41;5036956;28;19920;-57
2023/11/02 02:28:21;;;;;;;;;;;;;;;10.64;96.02;97795.78;5036993;28;19986;-59
2023/11/02 02:30:49;;;;;;;;;;;;;;;10.65;96.67;97803.47;5020671;28;20382;-59
2023/11/02 02:33:15;;;;;;;;;;;;;;;10.50;96.04;97792.97;5037085;28;19924;-58
2023/11/02 02:35:46;;;;;;;;;;;;;;;10.51;97.51;97796.41;5036815;28;20381;-61
2023/11/02 02:38:15;;;;;;;;;;;;;;;10.49;97.11;97799.31;5054814;28;19924;-59
2023/11/02 02:40:45;;;;;;;;;;;;;;;10.48;98.06;97802.25;5053105;28;19935;-58
2023/11/02 02:43:10;;;;;;;;;;;;;;;10.52;97.83;97805.94;5054894;28;19934;-60
2023/11/02 02:45:36;;;;;;;;;;;;;;;10.47;98.52;97804.13;5054242;28;20023;-62
2023/11/02 02:48:03;;;;;;;;;;;;;;;10.45;98.29;97800.94;5052966;28;19924;-58
2023/11/02 02:50:29;;;;;;;;;;;;;;;10.44;98.35;97802.00;5036376;28;19921;-60
2023/11/02 02:52:54;;;;;;;;;;;;;;;10.35;98.28;97804.47;5052920;28;19925;-59
2023/11/02 02:55:20;;;;;;;;;;;;;;;10.39;99.16;97799.41;5052775;28;19970;-61
2023/11/02 02:57:46;;;;;;;;;;;;;;;10.32;97.96;97797.03;5035989;28;19963;-60
2023/11/02 03:00:11;;;;;;;;;;;;;;;10.28;98.03;97795.22;5052651;28;19928;-59
2023/11/02 03:02:37;;;;;;;;;;;;;;;10.26;98.12;97792.81;5052373;28;19924;-60
2023/11/02 03:05:02;;;;;;;;;;;;;;;10.25;97.62;97799.19;5052557;28;19960;-59
2023/11/02 03:07:29;;;;;;;;;;;;;;;10.18;98.25;97790.75;5036008;28;19925;-58
2023/11/02 03:10:01;;;;;;;;;;;;;;;10.20;98.01;97789.38;5019354;28;19927;-57
2023/11/02 03:12:28;;;;;;;;;;;;;;;10.22;99.34;97787.28;5053772;28;19982;-59
2023/11/02 03:14:54;;;;;;;;;;;;;;;10.21;98.92;97785.69;5053300;28;19925;-60
2023/11/02 03:17:38;;;;;;;;;;;;;;;10.23;97.98;97794.16;5053795;28;20019;-59
2023/11/02 03:20:06;;;;;;;;;;;;;;;10.16;97.58;97788.38;5052669;28;20311;-59
2023/11/02 03:22:32;;;;;;;;;;;;;;;10.14;97.19;97798.44;5066596;28;19924;-60
2023/11/02 03:25:16;;;;;;;;;;;;;;;10.10;96.13;97786.81;5073511;28;19920;-58
2023/11/02 03:27:43;;;;;;;;;;;;;;;9.98;97.11;97784.50;5073703;28;20378;-59
2023/11/02 03:30:17;;;;;;;;;;;;;;;9.99;97.31;97798.50;5072218;28;19926;-59
2023/11/02 03:32:50;;;;;;;;;;;;;;;10.01;96.48;97789.25;5071964;28;20400;-58
2023/11/02 03:35:35;;;;;;;;;;;;;;;10.01;95.77;97785.81;5072519;28;19920;-59
2023/11/02 03:38:08;;;;;;;;;;;;;;;9.99;96.07;97796.66;5072792;28;19924;-61
2023/11/02 03:40:42;;;;;;;;;;;;;;;10.02;95.92;97788.16;5071736;28;19920;-59
2023/11/02 03:43:24;;;;;;;;;;;;;;;9.98;95.52;97787.13;5073204;28;19951;-59
2023/11/02 03:45:49;;;;;;;;;;;;;;;9.92;95.81;97798.81;5073001;28;19967;-59
2023/11/02 03:48:21;;;;;;;;;;;;;;;9.90;95.97;97792.19;5072869;28;19974;-59
2023/11/02 03:50:47;;;;;;;;;;;;;;;9.86;95.17;97799.13;5071264;28;19969;-60
2023/11/02 03:53:13;;;;;;;;;;;;;;;9.90;95.22;97790.34;5072653;28;20034;-60
2023/11/02 03:55:42;;;;;;;;;;;;;;;9.93;95.65;97789.00;5072823;28;19920;-58
2023/11/02 03:58:13;;;;;;;;;;;;;;;9.88;95.39;97789.84;5073238;28;19931;-58
2023/11/02 04:00:50;;;;;;;;;;;;;;;9.89;96.09;97791.41;5072578;28;19920;-59
2023/11/02 04:03:15;;;;;;;;;;;;;;;9.91;95.36;97791.13;5071185;28;19924;-58
2023/11/02 04:05:44;;;;;;;;;;;;;;;9.89;95.71;97790.63;5037388;28;19943;-59
2023/11/02 04:08:15;;;;;;;;;;;;;;;9.86;95.37;97804.41;5052918;28;19925;-61
2023/11/02 04:10:53;;;;;;;;;;;;;;;9.76;95.78;97792.81;5051520;28;19924;-60
2023/11/02 04:13:22;;;;;;;;;;;;;;;9.72;96.37;97786.44;5052403;28;19925;-60
2023/11/02 04:15:51;;;;;;;;;;;;;;;9.72;95.40;97786.44;5052454;28;20301;-61
2023/11/02 04:18:17;;;;;;;;;;;;;;;9.68;96.61;97776.69;5052376;28;20412;-60
2023/11/02 04:20:43;;;;;;;;;;;;;;;9.69;96.08;97779.06;5051050;28;19920;-60
2023/11/02 04:23:11;;;;;;;;;;;;;;;9.66;96.38;97784.88;5052722;28;20396;-60
2023/11/02 04:25:37;;;;;;;;;;;;;;;9.67;96.65;97781.16;5051953;28;20020;-59
2023/11/02 04:28:02;;;;;;;;;;;;;;;9.64;96.51;97789.66;5052720;28;20061;-59
2023/11/02 04:30:27;;;;;;;;;;;;;;;9.61;97.19;97786.75;5017820;28;20286;-60
2023/11/02 04:32:53;;;;;;;;;;;;;;;9.59;96.84;97787.03;5052439;28;19924;-59
2023/11/02 04:35:19;;;;;;;;;;;;;;;9.58;97.04;97782.00;5052199;28;19920;-61
2023/11/02 04:37:59;;;;;;;;;;;;;;;9.62;96.88;97781.22;5052246;28;19962;-59
2023/11/02 04:40:25;;;;;;;;;;;;;;;9.61;97.05;97786.75;5050665;28;19921;-59
2023/11/02 04:42:50;;;;;;;;;;;;;;;9.58;96.92;97788.09;5052221;28;19974;-59
2023/11/02 04:45:16;;;;;;;;;;;;;;;9.58;96.90;97780.16;5051909;28;19920;-61
2023/11/02 04:47:42;;;;;;;;;;;;;;;9.57;96.21;97791.00;5033914;28;19925;-59
2023/11/02 04:50:07;;;;;;;;;;;;;;;9.54;97.41;97790.47;5051967;28;20383;-58
2023/11/02 04:52:33;;;;;;;;;;;;;;;9.50;97.56;97781.50;5071925;28;19926;-57
2023/11/02 04:54:59;;;;;;;;;;;;;;;9.49;97.43;97784.41;5063073;28;20341;-59
2023/11/02 04:57:24;;;;;;;;;;;;;;;9.52;96.69;97786.53;5051903;28;19940;-59
2023/11/02 04:59:50;;;;;;;;;;;;;;;9.53;96.51;97782.84;5050366;28;19924;-62
2023/11/02 05:02:15;;;;;;;;;;;;;;;9.56;95.83;97779.66;5051714;28;19925;-59
2023/11/02 05:04:41;;;;;;;;;;;;;;;9.50;96.39;97776.22;5058838;28;20474;-58
2023/11/02 05:07:06;;;;;;;;;;;;;;;9.48;96.46;97774.91;5064219;28;19932;-60
2023/11/02 05:09:32;;;;;;;;;;;;;;;9.51;96.81;97774.38;5059179;28;20317;-61
2023/11/02 05:11:57;;;;;;;;;;;;;;;9.45;96.70;97772.81;5061799;28;20308;-60
2023/11/02 05:14:22;;;;;;;;;;;;;;;9.51;97.08;97779.66;5059298;28;20019;-60
2023/11/02 05:16:48;;;;;;;;;;;;;;;9.50;97.10;97770.94;5051275;28;19924;-62
2023/11/02 05:19:13;;;;;;;;;;;;;;;9.48;96.64;97777.56;5049809;28;19920;-61
2023/11/02 05:21:39;;;;;;;;;;;;;;;9.51;96.47;97764.56;5047930;28;20436;-60
2023/11/02 05:24:04;;;;;;;;;;;;;;;9.55;97.06;97764.81;5047246;28;20469;-61
2023/11/02 05:26:31;;;;;;;;;;;;;;;9.51;96.98;97771.72;5047687;28;20016;-61
2023/11/02 05:28:57;;;;;;;;;;;;;;;9.54;96.79;97763.25;5047720;28;19921;-61
2023/11/02 05:31:22;;;;;;;;;;;;;;;9.50;95.37;97759.53;5048777;28;20019;-61
2023/11/02 05:33:48;;;;;;;;;;;;;;;9.46;95.86;97755.84;5048806;28;19928;-59
2023/11/02 05:36:13;;;;;;;;;;;;;;;9.38;95.97;97745.81;5049667;28;20007;-60
2023/11/02 05:38:38;;;;;;;;;;;;;;;9.35;96.38;97752.44;5052930;28;20421;-58
2023/11/02 05:41:04;;;;;;;;;;;;;;;9.37;95.87;97752.97;5055177;28;19920;-59
2023/11/02 05:43:30;;;;;;;;;;;;;;;9.38;95.96;97745.81;5055365;28;19921;-59
2023/11/02 05:45:55;;;;;;;;;;;;;;;9.39;95.98;97760.66;5055183;28;19920;-60
2023/11/02 05:48:21;;;;;;;;;;;;;;;9.38;94.77;97764.34;5053755;28;20015;-60
2023/11/02 05:50:47;;;;;;;;;;;;;;;9.29;95.19;97756.97;5055316;28;19921;-58
2023/11/02 05:53:12;;;;;;;;;;;;;;;9.35;94.57;97767.53;5055575;28;19948;-59
2023/11/02 05:55:38;;;;;;;;;;;;;;;9.31;94.74;97773.34;5054242;28;20015;-60
2023/11/02 05:58:03;;;;;;;;;;;;;;;9.32;93.88;97763.56;5053945;28;19924;-59
2023/11/02 06:00:29;;;;;;;;;;;;;;;9.30;94.39;97765.69;5053960;28;19920;-60
2023/11/02 06:02:55;;;;;;;;;;;;;;;9.28;93.77;97776.53;5037020;28;19932;-59
2023/11/02 06:05:20;;;;;;;;;;;;;;;9.28;94.49;97765.16;5069056;28;19947;-59
2023/11/02 06:07:46;;;;;;;;;;;;;;;9.25;94.32;97774.44;5075117;28;20316;-60
2023/11/02 06:10:11;;;;;;;;;;;;;;;9.17;93.43;97780.25;5073646;28;19927;-61
2023/11/02 06:12:37;;;;;;;;;;;;;;;9.18;92.36;97789.00;5075054;28;19958;-62
2023/11/02 06:15:03;;;;;;;;;;;;;;;9.05;91.19;97777.09;5074813;28;19969;-61
2023/11/02 06:17:29;;;;;;;;;;;;;;;9.00;91.45;97777.09;5073504;28;20337;-60
2023/11/02 06:19:54;;;;;;;;;;;;;;;8.89;91.95;97773.69;5074540;28;20005;-60
2023/11/02 06:22:20;;;;;;;;;;;;;;;8.90;92.03;97785.06;5074832;28;19929;-60
2023/11/02 06:24:45;;;;;;;;;;;;;;;8.89;92.67;97776.34;5074612;28;19920;-59
2023/11/02 06:27:11;;;;;;;;;;;;;;;8.90;93.14;97771.84;5074677;28;20312;-58
2023/11/02 06:29:37;;;;;;;;;;;;;;;8.84;93.48;97769.19;5074451;28;19927;-62
2023/11/02 06:32:04;;;;;;;;;;;;;;;8.79;94.26;97755.97;5073036;28;20043;-59
2023/11/02 06:34:32;;;;;;;;;;;;;;;8.79;94.93;97748.06;5073148;28;20283;-61
2023/11/02 06:36:58;;;;;;;;;;;;;;;8.73;96.01;97749.13;5073231;28;20041;-59
2023/11/02 06:39:23;;;;;;;;;;;;;;;8.72;96.24;97750.19;5074659;28;20022;-59
2023/11/02 06:41:49;;;;;;;;;;;;;;;8.75;96.72;97751.50;5072952;28;19920;-59
2023/11/02 06:44:15;;;;;;;;;;;;;;;8.71;96.55;97759.19;5074435;28;19920;-60
2023/11/02 06:46:42;;;;;;;;;;;;;;;8.75;97.51;97747.00;5074014;28;19982;-61
2023/11/02 06:49:08;;;;;;;;;;;;;;;8.80;97.56;97743.59;5073711;28;19935;-62
2023/11/02 06:51:34;;;;;;;;;;;;;;;8.78;98.21;97722.69;5074186;28;19931;-61
2023/11/02 06:53:59;;;;;;;;;;;;;;;8.75;97.99;97731.16;5073535;28;19920;-62
2023/11/02 06:56:26;;;;;;;;;;;;;;;8.74;97.78;97734.09;5073821;28;19971;-60
2023/11/02 06:58:52;;;;;;;;;;;;;;;8.75;97.41;97740.94;5073580;28;19920;-60
2023/11/02 07:01:18;;;;;;;;;;;;;;;8.79;98.06;97718.19;5072179;28;20445;-60
2023/11/02 07:03:43;;;;;;;;;;;;;;;8.83;98.28;97741.19;5073693;28;19921;-59
2023/11/02 07:06:09;;;;;;;;;;;;;;;8.77;99.22;97733.56;5073577;28;19924;-59
2023/11/02 07:08:34;;;;;;;;;;;;;;;8.66;99.16;97739.88;5071987;28;20286;-62
2023/11/02 07:11:00;;;;;;;;;;;;;;;8.64;98.96;97722.44;5073385;28;19924;-59
2023/11/02 07:13:26;;;;;;;;;;;;;;;8.54;97.63;97740.94;5055982;28;19924;-59
2023/11/02 07:15:51;;;;;;;;;;;;;;;8.41;97.84;97742.28;5072416;28;20364;-60
2023/11/02 07:18:17;;;;;;;;;;;;;;;8.32;97.35;97748.28;5055048;28;20386;-61
2023/11/02 07:20:42;;;;;;;;;;;;;;;8.27;97.19;97745.66;5072967;28;19920;-58
2023/11/02 07:23:08;;;;;;;;;;;;;;;8.21;96.54;97742.22;5073728;28;19929;-60
2023/11/02 07:25:33;;;;;;;;;;;;;;;8.11;95.89;97740.34;5072423;28;19966;-60
2023/11/02 07:27:59;;;;;;;;;;;;;;;8.06;95.72;97734.25;5072191;28;19924;-60
2023/11/02 07:30:24;;;;;;;;;;;;;;;8.00;94.74;97753.75;5071754;28;19924;-57
2023/11/02 07:32:50;;;;;;;;;;;;;;;7.93;94.75;97759.28;5053329;28;20396;-58
2023/11/02 07:35:15;;;;;;;;;;;;;;;7.84;95.99;97751.09;5052029;28;20007;-61
2023/11/02 07:37:41;;;;;;;;;;;;;;;7.83;94.95;97760.06;5053545;28;19920;-59
2023/11/02 07:40:07;;;;;;;;;;;;;;;7.72;94.35;97747.88;5053076;28;20051;-60
2023/11/02 07:42:32;;;;;;;;;;;;;;;7.63;94.40;97773.19;5053103;28;20128;-59
2023/11/02 07:44:58;;;;;;;;;;;;;;;7.54;94.58;97756.25;5061285;28;20389;-57
2023/11/02 07:47:24;;;;;;;;;;;;;;;7.52;94.54;97767.06;5073404;28;19925;-59
2023/11/02 07:49:49;;;;;;;;;;;;;;;7.47;93.84;97761.75;5072874;28;20382;-59
2023/11/02 07:52:15;;;;;;;;;;;;;;;7.37;92.85;97782.81;5071613;28;19921;-59
2023/11/02 07:54:41;;;;;;;;;;;;;;;7.31;91.97;97760.88;5054688;28;20082;-61
2023/11/02 07:57:07;;;;;;;;;;;;;;;7.22;92.18;97770.31;5073122;28;19924;-59
2023/11/02 07:59:37;;;;;;;;;;;;;;;7.16;91.37;97769.50;5065915;28;19990;-60
2023/11/02 08:02:03;;;;;;;;;;;;;;;7.12;91.04;97786.88;5054782;28;19970;-59
2023/11/02 08:04:28;;;;;;;;;;;;;;;6.99;91.61;97788.09;5068877;28;19970;-58
2023/11/02 08:06:54;;;;;;;;;;;;;;;6.96;92.00;97766.75;5071232;28;19929;-58
2023/11/02 08:09:19;;;;;;;;;;;;;;;6.94;91.93;97771.44;5067095;28;20389;-59
2023/11/02 08:11:45;;;;;;;;;;;;;;;6.92;91.39;97774.34;5052570;28;19932;-59
2023/11/02 08:14:10;;;;;;;;;;;;;;;6.78;91.23;97789.78;5051275;28;19978;-59
2023/11/02 08:16:36;;;;;;;;;;;;;;;6.78;91.62;97778.47;5052327;28;19925;-59
2023/11/02 08:19:02;;;;;;;;;;;;;;;6.72;92.16;97772.38;5053893;28;19920;-58
2023/11/02 08:21:27;;;;;;;;;;;;;;;6.74;92.43;97770.28;5070829;28;19974;-60
2023/11/02 08:23:53;;;;;;;;;;;;;;;6.76;92.97;97783.97;5068187;28;19924;-59
2023/11/02 08:26:21;;;;;;;;;;;;;;;6.72;92.88;97776.84;5047137;28;19924;-61
2023/11/02 08:28:50;;;;;;;;;;;;;;;6.67;92.17;97776.78;5048631;28;20159;-59
2023/11/02 08:31:21;;;;;;;;;;;;;;;6.59;92.42;97778.84;5048201;28;19925;-59
2023/11/02 08:33:46;;;;;;;;;;;;;;;6.58;93.92;97789.63;5050327;28;19946;-59
2023/11/02 08:36:14;;;;;;;;;;;;;;;6.52;93.66;97766.94;5050561;28;20031;-59
2023/11/02 08:38:40;;;;;;;;;;;;;;;6.51;92.92;97781.16;5050697;28;19921;-61
2023/11/02 08:41:05;;;;;;;;;;;;;;;6.49;93.06;97778.75;5070044;28;19932;-59
2023/11/02 08:43:32;;;;;;;;;;;;;;;6.53;93.69;97763.25;5069878;28;20019;-58
2023/11/02 08:45:58;;;;;;;;;;;;;;;6.50;94.02;97769.00;5053896;28;19921;-61
2023/11/02 08:48:23;;;;;;;;;;;;;;;6.46;94.54;97770.56;5052014;28;19974;-62
2023/11/02 08:50:49;;;;;;;;;;;;;;;6.51;94.56;97767.97;5051556;28;19928;-60
2023/11/02 08:53:14;;;;;;;;;;;;;;;6.41;93.39;97771.28;5051941;28;19920;-60
2023/11/02 08:55:40;;;;;;;;;;;;;;;6.49;94.68;97772.69;5051463;28;19925;-59
2023/11/02 08:58:05;;;;;;;;;;;;;;;6.53;94.83;97764.06;5052050;28;20367;-60
2023/11/02 09:00:33;;;;;;;;;;;;;;;6.48;94.43;97779.81;5051701;28;19925;-60
2023/11/02 09:02:58;;;;;;;;;;;;;;;6.45;94.38;97771.63;5060845;28;19920;-57
2023/11/02 09:05:24;;;;;;;;;;;;;;;6.43;94.51;97768.44;5071578;28;19970;-58
2023/11/02 09:07:49;;;;;;;;;;;;;;;6.45;94.61;97772.41;5061532;28;19985;-59
2023/11/02 09:10:15;;;;;;;;;;;;;;;6.48;93.95;97763.22;5051723;28;19939;-58
2023/11/02 09:12:40;;;;;;;;;;;;;;;6.53;94.62;97765.88;5051439;28;20040;-61
2023/11/02 09:15:06;;;;;;;;;;;;;;;6.39;94.68;97765.50;5051878;28;19970;-60
2023/11/02 09:17:32;;;;;;;;;;;;;;;6.41;94.59;97759.97;5058611;28;20262;-60
2023/11/02 09:19:58;;;;;;;;;;;;;;;6.39;94.14;97762.88;5071463;28;19950;-59
2023/11/02 09:22:24;;;;;;;;;;;;;;;6.35;94.27;97752.06;5065521;28;19920;-61
2023/11/02 09:24:49;;;;;;;;;;;;;;;6.36;94.43;97758.13;5051426;28;19968;-60
2023/11/02 09:27:15;;;;;;;;;;;;;;;6.39;94.48;97759.47;5050035;28;19974;-61
2023/11/02 09:29:40;;;;;;;;;;;;;;;6.37;93.69;97752.59;5050100;28;19935;-60
2023/11/02 09:32:06;;;;;;;;;;;;;;;6.35;93.13;97754.69;5051130;28;20374;-59
2023/11/02 09:34:34;;;;;;;;;;;;;;;6.34;94.30;97747.03;5053701;28;19931;-60
2023/11/02 09:36:59;;;;;;;;;;;;;;;6.36;94.10;97742.31;5059054;28;19921;-59
2023/11/02 09:39:25;;;;;;;;;;;;;;;6.19;94.00;97746.91;5060653;28;19931;-60
2023/11/02 09:41:50;;;;;;;;;;;;;;;6.25;94.97;97736.16;5060500;28;19924;-59
2023/11/02 09:44:16;;;;;;;;;;;;;;;6.17;92.97;97739.25;5062021;28;19920;-60
2023/11/02 09:46:41;;;;;;;;;;;;;;;6.19;93.90;97734.53;5050782;28;20386;-58
2023/11/02 09:49:07;;;;;;;;;;;;;;;6.17;94.07;97752.41;5067404;28;19947;-59
2023/11/02 09:51:32;;;;;;;;;;;;;;;6.27;95.59;97743.81;5071268;28;20014;-59
2023/11/02 09:53:58;;;;;;;;;;;;;;;6.29;94.05;97750.41;5050472;28;19925;-59
2023/11/02 09:56:24;;;;;;;;;;;;;;;6.25;92.83;97749.31;5049888;28;20389;-59
2023/11/02 09:58:49;;;;;;;;;;;;;;;6.28;92.63;97746.19;5047907;28;20023;-58
2023/11/02 10:01:15;;;;;;;;;;;;;;;6.25;91.61;97744.06;5053653;28;19927;-59
2023/11/02 10:03:54;;;;;;;;;;;;;;;6.32;92.19;97746.47;5061569;28;19931;-59
2023/11/02 10:06:29;;;;;;;;;;;;;;;6.24;91.10;97745.13;5031790;28;20385;-59
2023/11/02 10:09:04;;;;;;;;;;;;;;;6.17;91.25;97762.13;5048024;28;19931;-62
2023/11/02 10:11:29;;;;;;;;;;;;;;;6.25;90.99;97762.47;5052833;28;19920;-61
2023/11/02 10:13:56;;;;;;;;;;;;;;;6.24;90.52;97746.97;5049357;28;19947;-59
2023/11/02 10:16:22;;;;;;;;;;;;;;;6.12;90.88;97761.06;5053718;28;19921;-59
2023/11/02 10:18:47;;;;;;;;;;;;;;;6.13;90.98;97761.84;5050531;28;20305;-59
2023/11/02 10:21:13;;;;;;;;;;;;;;;6.16;90.78;97755.28;5051169;28;19925;-59
2023/11/02 10:23:55;;;;;;;;;;;;;;;6.18;90.33;97766.34;5051834;28;20337;-60
2023/11/02 10:26:20;;;;;;;;;;;;;;;6.11;90.42;97756.03;5054538;28;20362;-59
2023/11/02 10:28:46;;;;;;;;;;;;;;;6.24;89.91;97762.75;5054258;28;19931;-59
2023/11/02 10:31:11;;;;;;;;;;;;;;;6.16;89.64;97755.28;5054649;28;19920;-60
2023/11/02 10:33:37;;;;;;;;;;;;;;;6.10;89.25;97763.13;5063043;28;19932;-60
2023/11/02 10:36:05;;;;;;;;;;;;;;;6.05;89.17;97768.31;5053689;28;19920;-60
2023/11/02 10:38:31;;;;;;;;;;;;;;;6.06;89.13;97758.59;5054105;28;20491;-59
2023/11/02 10:40:56;;;;;;;;;;;;;;;6.03;88.97;97774.88;5054482;28;19921;-58
2023/11/02 10:43:22;;;;;;;;;;;;;;;5.98;88.08;97770.38;5054344;28;20283;-60
2023/11/02 10:45:48;;;;;;;;;;;;;;;5.96;87.77;97782.97;5054126;28;19927;-62
2023/11/02 10:48:16;;;;;;;;;;;;;;;5.97;87.09;97786.38;5052330;28;20047;-61
2023/11/02 10:50:42;;;;;;;;;;;;;;;5.99;87.30;97782.47;5053095;28;19921;-60
2023/11/02 10:53:07;;;;;;;;;;;;;;;6.03;87.36;97785.41;5052555;28;19920;-59
2023/11/02 10:55:38;;;;;;;;;;;;;;;6.06;87.58;97769.94;5051962;28;19967;-58
2023/11/02 10:58:03;;;;;;;;;;;;;;;6.07;87.06;97778.63;5052342;28;20251;-58
2023/11/02 11:00:29;;;;;;;;;;;;;;;6.05;86.65;97786.75;5070399;28;19928;-62
2023/11/02 11:02:54;;;;;;;;;;;;;;;6.09;86.64;97782.59;5070650;28;19942;-62
2023/11/02 11:05:20;;;;;;;;;;;;;;;6.16;86.89;97776.34;5065008;28;20388;-60
2023/11/02 11:07:46;;;;;;;;;;;;;;;6.16;87.21;97771.88;5070176;28;19920;-61
2023/11/02 11:10:16;;;;;;;;;;;;;;;6.16;86.13;97789.50;5052875;28;20378;-59
2023/11/02 11:12:42;;;;;;;;;;;;;;;6.18;86.53;97787.38;5053850;28;19920;-60
2023/11/02 11:15:10;;;;;;;;;;;;;;;6.16;85.52;97797.38;5069423;28;19928;-60
2023/11/02 11:17:36;;;;;;;;;;;;;;;6.14;85.64;97787.09;5073833;28;19920;-58
2023/11/02 11:20:02;;;;;;;;;;;;;;;6.15;84.17;97817.66;5073307;28;19926;-60
2023/11/02 11:22:28;;;;;;;;;;;;;;;6.10;83.87;97789.44;5072248;28;19920;-62
2023/11/02 11:24:55;;;;;;;;;;;;;;;6.08;82.96;97793.34;5072082;28;20400;-62
2023/11/02 11:27:28;;;;;;;;;;;;;;;6.05;82.49;97807.00;5072272;28;20007;-62
2023/11/02 11:29:54;;;;;;;;;;;;;;;6.02;83.23;97796.97;5056643;28;19979;-60
2023/11/02 11:32:25;;;;;;;;;;;;;;;6.02;82.68;97800.38;5053719;28;20294;-60
2023/11/02 11:34:54;;;;;;;;;;;;;;;6.01;82.68;97816.44;5051628;28;20511;-62
2023/11/02 11:37:31;;;;;;;;;;;;;;;5.97;84.05;97805.63;5051739;28;19920;-60
2023/11/02 11:39:58;;;;;;;;;;;;;;;6.01;83.13;97803.28;5054351;28;20306;-62
2023/11/02 11:42:42;;;;;;;;;;;;;;;5.98;82.98;97809.81;5053920;28;20288;-60
2023/11/02 11:45:26;;;;;;;;;;;;;;;5.98;83.32;97798.50;5053255;28;19924;-59
2023/11/02 11:47:53;;;;;;;;;;;;;;;6.02;83.67;97800.38;5062175;28;20250;-59
2023/11/02 11:50:37;;;;;;;;;;;;;;;6.02;82.85;97804.84;5060686;28;20460;-62
2023/11/02 11:53:19;;;;;;;;;;;;;;;5.99;83.20;97797.47;5063478;28;20388;-61
2023/11/02 11:55:45;;;;;;;;;;;;;;;6.05;83.97;97799.09;5063097;28;19928;-62
2023/11/02 11:58:11;;;;;;;;;;;;;;;5.98;83.21;97803.78;5061798;28;20369;-62
2023/11/02 12:00:57;;;;;;;;;;;;;;;6.00;83.40;97791.97;5060683;28;19931;-60
2023/11/02 12:03:34;;;;;;;;;;;;;;;6.01;82.87;97803.28;5062939;28;19924;-62
2023/11/02 12:06:00;;;;;;;;;;;;;;;6.09;82.75;97805.47;5060853;28;19920;-59
2023/11/02 12:08:26;;;;;;;;;;;;;;;6.03;82.82;97804.63;5031124;28;20398;-60
2023/11/02 12:10:52;;;;;;;;;;;;;;;6.04;82.97;97824.63;5063140;28;19920;-61
2023/11/02 12:13:18;;;;;;;;;;;;;;;6.03;82.59;97809.88;5062357;28;19931;-62
2023/11/02 12:15:50;;;;;;;;;;;;;;;6.04;83.57;97810.69;5063306;28;19920;-61
2023/11/02 12:18:16;;;;;;;;;;;;;;;6.06;83.34;97817.28;5062210;28;20024;-59
2023/11/02 12:20:42;;;;;;;;;;;;;;;6.05;82.57;97818.31;5062427;28;19924;-61
2023/11/02 12:23:08;;;;;;;;;;;;;;;6.17;83.20;97812.91;5059607;28;19924;-59
2023/11/02 12:25:34;;;;;;;;;;;;;;;6.17;82.74;97822.66;5061608;28;19932;-61
2023/11/02 12:28:01;;;;;;;;;;;;;;;6.18;82.88;97821.59;5069733;28;19924;-59
2023/11/02 12:30:26;;;;;;;;;;;;;;;6.22;83.17;97823.50;5072321;28;20278;-61
2023/11/02 12:32:52;;;;;;;;;;;;;;;6.20;82.84;97827.41;5057225;28;19928;-59
2023/11/02 12:35:21;;;;;;;;;;;;;;;6.09;80.44;97842.31;5055620;28;20025;-63
2023/11/02 12:37:58;;;;;;;;;;;;;;;6.04;79.23;97837.78;5072464;28;19973;-60
2023/11/02 12:40:23;;;;;;;;;;;;;;;5.99;78.58;97845.59;5066447;28;20298;-61
2023/11/02 12:42:49;;;;;;;;;;;;;;;5.98;78.47;97840.59;5052150;28;19925;-62
2023/11/02 12:45:15;;;;;;;;;;;;;;;5.90;79.38;97839.16;5051813;28;19925;-59
2023/11/02 12:47:40;;;;;;;;;;;;;;;5.94;80.07;97831.59;5049505;28;19967;-58
2023/11/02 12:50:23;;;;;;;;;;;;;;;5.97;80.34;97841.63;5051763;28;19925;-60
2023/11/02 12:52:49;;;;;;;;;;;;;;;5.99;80.63;97839.53;5050565;28;19920;-62
2023/11/02 12:55:15;;;;;;;;;;;;;;;5.98;82.05;97846.66;5051686;28;19925;-60
2023/11/02 12:57:41;;;;;;;;;;;;;;;6.02;80.87;97852.19;5059891;28;19920;-61